NZWN/WLG METAR and TAF weather

Enter ICAO airport designator
Station Type Date Time Source
NZWN METAR 2021/05/13 05:00 UTC NOAA

NZWN 130500Z AUTO 13007KT 090V150 9999 NCD 11/02 Q1027 NOSIG


Station Type Date Time Source
NZWN Decoded METAR 2021/05/13 05:00 UTC NOAA

Wellington Airport, New Zealand (NZWN) 41-20S 174-48E 8M
May 13, 2021 - 01:00 AM EDT / 2021.05.13 0500 UTC
Wind: from the SE (130 degrees) at 8 MPH (7 KT) (direction variable):0
Visibility: greater than 7 mile(s):0
Temperature: 51 F (11 C)
Dew Point: 35 F (2 C)
Relative Humidity: 53%
Pressure (altimeter): 30.33 in. Hg (1027 hPa)
ob: NZWN 130500Z AUTO 13007KT 090V150 9999 NCD 11/02 Q1027 NOSIG
cycle: 5

Station Type Date Time Source
NZWN TAF 2021/05/12 18:09 UTC NOAA

TAF NZWN 121706Z 1218/1318 16012KT 9999 SCT030
BECMG 1312/1314 01005KT

Example: see airport list